Карточка аэропорта URRP

Внимание!
Информация на этой странице в стадии наполнения.
Если вы не увидели какой-то информации, или заметили неточность - пожалуйста сообщите нам!
Спасибо!
Команда RU-STAFF
Название аэропортаПлатов
Название аэропорта (англ.)Platov
Превышение282 ft. (86 m.)
Координаты47°29.634', 39°55.482'
Высота перехода3500 ft
Эшелон переходаFL50 (QNH >= 996); FL60 (QNH < 996)
Коды ответчика1001-1017
Зона ОрВДРостов-на-Дону РПИ (URRV)
Данные METARURRP 210930Z 31008MPS 290V350 9999 SCT/// 24/07 Q1012 R23/CLRD70 NOSIG RMK QFE751/1001
Проноз погоды (TAF)URRP 210755Z 2109/2209 31008G17MPS 9999 SCT016 SCT030CB TX27/2112Z TN16/2202Z TEMPO 2109/2115 33011G19MPS 6000 -SHRA FEW011 BKN020CB PROB40 TEMPO 2109/2115 -TSRA BECMG 2115/2117 32006G14MPS
NOTAMshow/hide NOTAM
AWOS   TABLE

Информация о ВПП

ВПП Длина ВПП (м.) Покрытие Курс ВПП Частота ILS
053900Цементобетон46111.5
233900Цементобетон226110.9

Диспетчерские позиции

Позывной Наименование органа УВД Частота
URRP_TWRПлатов-Вышка119.7
URRP_R_APPПлатов - Круг121.2
URRP_GNDПлатов - руление119.0
URRP_DELПлатов-деливери127.1
URRP_APPПлатов-подход128.2



Спутниковое изображение